.
WxDataArchive / Data Records for 2013-01-17
2013-01-16 January 2013 2013-01-18

Data Records for Thursday, 17 January 2013

Time	Temp	Chill	HIndex	Humid	Dewpt	 Wind 	HiWind	WindDir	Rain 	Barom 
-----	----	-----	------	-----	-----	------	------	-------	-----	----- 
00:00	33.5	33.5	33.5	73	25.8	2	6	248	0.00	30.039 
00:05	33.5	33.5	33.5	73	25.8	2	4	248	0.00	30.039 
00:10	33.5	33.5	33.5	73	25.8	2	4	248	0.00	30.039 
00:15	33.5	33.5	33.5	73	25.8	2	5	248	0.00	30.035 
00:20	33.5	33.5	33.5	73	25.8	1	3	248	0.00	30.035 
00:25	33.5	33.5	33.5	73	25.8	1	3	248	0.00	30.035 
00:30	33.4	33.4	33.4	73	25.7	1	3	248	0.00	30.040 
00:35	33.4	33.4	33.4	73	25.7	2	5	270	0.00	30.040 
00:40	33.4	33.4	33.4	73	25.7	1	3	248	0.00	30.040 
00:45	33.4	33.4	33.4	73	25.7	1	5	248	0.00	30.045 
00:50	33.4	33.4	33.4	73	25.7	1	2	248	0.00	30.045 
00:55	33.4	33.4	33.4	73	25.7	1	3	248	0.00	30.045 
01:00	33.4	33.4	33.4	74	26.0	1	4	248	0.00	30.052 
01:05	33.2	33.2	33.2	74	25.8	1	3	248	0.00	30.052 
01:10	33.1	33.1	33.1	74	25.7	1	3	248	0.00	30.052 
01:15	32.9	32.9	32.9	74	25.5	1	3	248	0.00	30.058 
01:20	32.9	32.9	32.9	75	25.9	0	2	248	0.00	30.058 
01:25	32.9	32.9	32.9	75	25.9	1	3	248	0.00	30.058 
01:30	32.9	32.9	32.9	75	25.9	1	3	248	0.00	30.065 
01:35	32.9	32.9	32.9	75	25.9	0	2	248	0.00	30.065 
01:40	32.9	32.9	32.9	76	26.2	1	3	248	0.00	30.065 
01:45	32.9	32.9	32.9	76	26.2	1	3	248	0.00	30.070 
01:50	33.1	33.1	33.1	75	26.1	0	2	248	0.00	30.070 
01:55	33.1	33.1	33.1	76	26.4	1	3	248	0.00	30.070 
02:00	33.1	33.1	33.1	76	26.4	0	3	248	0.00	30.078 
02:05	33.1	33.1	33.1	76	26.4	0	2	248	0.00	30.078 
02:10	32.9	32.9	32.9	76	26.2	0	1	248	0.00	30.078 
02:15	32.9	32.9	32.9	76	26.2	1	4	248	0.00	30.081 
02:20	32.9	32.9	32.9	76	26.2	0	2	248	0.00	30.081 
02:25	32.9	32.9	32.9	76	26.2	0	4	248	0.00	30.081 
02:30	32.9	32.9	32.9	76	26.2	0	2	248	0.00	30.081 
02:35	32.9	32.9	32.9	76	26.2	0	2	248	0.00	30.081 
02:40	32.9	32.9	32.9	76	26.2	1	2	248	0.00	30.081 
02:45	32.9	32.9	32.9	76	26.2	0	2	248	0.00	30.094 
02:50	32.9	32.9	32.9	76	26.2	0	3	248	0.00	30.094 
02:55	32.9	32.9	32.9	76	26.2	1	3	248	0.00	30.094 
03:00	32.9	32.9	32.9	76	26.2	1	3	248	0.00	30.097 
03:05	32.9	32.9	32.9	76	26.2	0	2	248	0.00	30.097 
03:10	32.9	32.9	32.9	76	26.2	0	3	248	0.00	30.097 
03:15	32.9	32.9	32.9	76	26.2	0	2	248	0.00	30.099 
03:20	32.9	32.9	32.9	76	26.2	0	3	248	0.00	30.099 
03:25	32.9	32.9	32.9	76	26.2	0	2	248	0.00	30.099 
03:30	32.9	32.9	32.9	76	26.2	1	2	248	0.00	30.113 
03:35	32.9	32.9	32.9	76	26.2	0	2	248	0.00	30.113 
03:40	32.9	32.9	32.9	76	26.2	0	1	248	0.00	30.113 
03:45	32.9	32.9	32.9	76	26.2	0	2	248	0.00	30.108 
03:50	32.9	32.9	32.9	76	26.2	0	2	248	0.00	30.108 
03:55	32.9	32.9	32.9	76	26.2	0	2	248	0.00	30.108 
04:00	32.9	32.9	32.9	76	26.2	0	2	248	0.00	30.100 
04:05	32.9	32.9	32.9	76	26.2	0	2	248	0.00	30.100 
04:10	32.8	32.8	32.8	76	26.1	0	2	248	0.00	30.100 
04:15	32.8	32.8	32.8	76	26.1	0	2	248	0.00	30.098 
04:20	32.8	32.8	32.8	77	26.4	0	2	248	0.00	30.098 
04:25	32.7	32.7	32.7	77	26.3	0	2	248	0.00	30.098 
04:30	32.7	32.7	32.7	77	26.3	0	1	248	0.00	30.098 
04:35	32.7	32.7	32.7	77	26.3	0	2	248	0.00	30.098 
04:40	32.7	32.7	32.7	77	26.3	1	2	248	0.00	30.098 
04:45	32.7	32.7	32.7	77	26.3	1	2	248	0.00	30.104 
04:50	32.5	32.5	32.5	77	26.1	0	2	248	0.00	30.104 
04:55	32.5	32.5	32.5	77	26.1	0	2	248	0.00	30.104 
05:00	32.7	32.7	32.7	77	26.3	0	2	248	0.00	30.106 
05:05	32.7	32.7	32.7	77	26.3	0	2	248	0.00	30.106 
05:10	32.7	32.7	32.7	77	26.3	0	2	248	0.00	30.106 
05:15	32.5	32.5	32.5	77	26.1	0	2	248	0.00	30.113 
05:20	32.4	32.4	32.4	77	26.0	0	2	248	0.00	30.113 
05:25	32.2	32.2	32.2	78	26.1	0	1	248	0.00	30.113 
05:30	32.1	32.1	32.1	78	26.0	0	1	248	0.00	30.113 
05:35	31.9	31.9	31.9	78	25.8	0	1	248	0.00	30.113 
05:40	31.6	31.6	31.6	78	25.5	0	0	---	0.00	30.113 
05:45	31.5	31.5	31.5	79	25.8	0	0	---	0.00	30.118 
05:50	31.2	31.2	31.2	79	25.5	0	0	---	0.00	30.118 
05:55	31.0	31.0	31.0	80	25.6	0	0	---	0.00	30.118 
06:00	30.9	30.9	30.9	80	25.5	0	0	---	0.00	30.118 
06:05	30.7	30.7	30.7	80	25.3	0	0	---	0.00	30.118 
06:10	30.4	30.4	30.4	80	25.0	0	0	---	0.00	30.118 
06:15	30.1	30.1	30.1	80	24.7	0	0	---	0.00	30.137 
06:20	30.0	30.0	30.0	81	24.9	0	0	---	0.00	30.137 
06:25	29.7	29.7	29.7	81	24.6	0	0	---	0.00	30.137 
06:30	29.5	29.5	29.5	81	24.4	0	0	---	0.00	30.136 
06:35	29.4	29.4	29.4	81	24.3	0	0	---	0.00	30.136 
06:40	29.1	29.1	29.1	81	24.0	0	0	---	0.00	30.136 
06:45	29.0	29.0	29.0	82	24.2	0	0	---	0.00	30.144 
06:50	28.7	28.7	28.7	82	23.9	0	0	---	0.00	30.144 
06:55	28.5	28.5	28.5	82	23.7	0	0	---	0.00	30.144 
07:00	28.4	28.4	28.4	83	23.9	0	0	---	0.00	30.153 
07:05	28.2	28.2	28.2	84	24.0	0	0	---	0.00	30.153 
07:10	28.2	28.2	28.2	84	24.0	0	0	---	0.00	30.153 
07:15	28.1	28.1	28.1	84	23.9	0	0	---	0.00	30.155 
07:20	27.9	27.9	27.9	84	23.7	0	0	---	0.00	30.155 
07:25	27.9	27.9	27.9	85	24.0	0	1	248	0.00	30.155 
07:30	28.1	28.1	28.1	85	24.2	0	0	---	0.00	30.167 
07:35	28.2	28.2	28.2	86	24.6	0	0	---	0.00	30.167 
07:40	28.2	28.2	28.2	86	24.6	0	0	---	0.00	30.167 
07:45	28.2	28.2	28.2	86	24.6	0	0	---	0.00	30.168 
07:50	28.2	28.2	28.2	86	24.6	0	0	---	0.00	30.168 
07:55	28.2	28.2	28.2	86	24.6	0	1	248	0.00	30.168 
08:00	28.2	28.2	28.2	86	24.6	0	0	---	0.00	30.169 
08:05	28.2	28.2	28.2	87	24.8	0	0	---	0.00	30.169 
08:10	28.2	28.2	28.2	87	24.8	0	0	---	0.00	30.169 
08:15	27.9	27.9	27.9	86	24.3	0	0	---	0.00	30.174 
08:20	27.8	27.8	27.8	86	24.2	0	0	---	0.00	30.174 
08:25	27.5	27.5	27.5	86	23.9	0	0	---	0.00	30.174 
08:30	27.2	27.2	27.2	86	23.6	0	0	---	0.00	30.183 
08:35	26.9	26.9	26.9	86	23.3	0	0	---	0.00	30.183 
08:40	26.7	26.7	26.7	86	23.1	0	0	---	0.00	30.183 
08:45	26.6	26.6	26.6	87	23.3	0	0	---	0.00	30.190 
08:50	26.3	26.3	26.3	87	23.0	0	0	---	0.00	30.190 
08:55	26.1	26.1	26.1	87	22.8	0	0	---	0.00	30.190 
09:00	26.0	26.0	26.0	87	22.7	0	0	---	0.00	30.200 
09:05	26.0	26.0	26.0	87	22.7	0	0	---	0.00	30.200 
09:10	26.0	26.0	26.0	88	22.9	0	0	---	0.00	30.200 
09:15	26.0	26.0	26.0	88	22.9	0	0	---	0.00	30.203 
09:20	26.0	26.0	26.0	88	22.9	0	0	---	0.00	30.203 
09:25	26.0	26.0	26.0	88	22.9	0	0	---	0.00	30.203 
09:30	26.1	26.1	26.1	88	23.0	0	0	---	0.00	30.206 
09:35	26.4	26.4	26.4	89	23.6	0	0	---	0.00	30.206 
09:40	27.2	27.2	27.2	89	24.4	0	0	---	0.00	30.206 
09:45	28.1	28.1	28.1	90	25.6	0	0	---	0.00	30.215 
09:50	29.4	29.4	29.4	90	26.8	0	0	---	0.00	30.215 
09:55	30.3	30.3	30.3	89	27.5	0	1	248	0.00	30.215 
10:00	30.9	30.9	30.9	88	27.8	0	0	---	0.00	30.219 
10:05	31.3	31.3	31.3	88	28.2	0	0	---	0.00	30.219 
10:10	31.8	31.8	31.8	88	28.7	0	1	248	0.00	30.219 
10:15	32.2	32.2	32.2	87	28.8	0	1	248	0.00	30.217 
10:20	32.5	32.5	32.5	86	28.8	0	1	248	0.00	30.217 
10:25	32.9	32.9	32.9	85	28.9	0	1	248	0.00	30.217 
10:30	33.4	33.4	33.4	84	29.1	0	1	248	0.00	30.221 
10:35	34.0	34.0	34.0	83	29.4	0	2	248	0.00	30.221 
10:40	34.4	34.4	34.4	80	28.9	1	3	248	0.00	30.221 
10:45	34.9	34.9	34.9	77	28.4	1	3	248	0.00	30.224 
10:50	35.3	35.3	35.3	75	28.2	1	3	315	0.00	30.224 
10:55	35.8	35.8	35.8	73	28.0	1	3	315	0.00	30.224 
11:00	36.2	36.2	36.2	70	27.4	2	3	270	0.00	30.223 
11:05	36.3	36.3	36.3	68	26.8	1	4	315	0.00	30.223 
11:10	36.5	36.5	36.5	68	27.0	1	4	338	0.00	30.223 
11:15	36.8	36.8	36.8	67	26.9	1	3	338	0.00	30.228 
11:20	36.9	36.9	36.9	66	26.6	2	4	248	0.00	30.228 
11:25	37.0	37.0	37.0	65	26.3	1	3	248	0.00	30.228 
11:30	37.0	37.0	37.0	64	26.0	1	4	315	0.00	30.222 
11:35	37.3	37.3	37.3	64	26.3	1	4	292	0.00	30.222 
11:40	37.5	37.5	37.5	63	26.1	1	4	0	0.00	30.222 
11:45	37.6	37.6	37.6	63	26.2	1	4	0	0.00	30.213 
11:50	37.8	37.8	37.8	62	26.0	1	4	270	0.00	30.213 
11:55	37.6	37.6	37.6	61	25.4	1	2	338	0.00	30.213 
12:00	37.6	37.6	37.6	62	25.8	1	3	338	0.00	30.209 
12:05	37.8	37.8	37.8	62	26.0	1	3	338	0.00	30.209 
12:10	38.0	38.0	38.0	60	25.4	2	5	270	0.00	30.209 
12:15	37.9	37.9	37.9	59	24.9	2	4	315	0.00	30.208 
12:20	38.0	38.0	38.0	59	25.0	2	4	338	0.00	30.208 
12:25	38.2	38.2	38.2	59	25.2	2	5	248	0.00	30.208 
12:30	38.0	38.0	38.0	59	25.0	2	4	338	0.00	30.198 
12:35	38.3	38.3	38.3	58	24.8	2	4	338	0.00	30.198 
12:40	38.3	38.3	38.3	58	24.8	2	4	0	0.00	30.198 
12:45	38.2	38.2	38.2	57	24.3	2	6	248	0.00	30.191 
12:50	38.2	38.2	38.2	57	24.3	2	5	338	0.00	30.191 
12:55	38.0	38.0	38.0	57	24.1	2	6	338	0.00	30.191 
13:00	38.3	38.3	38.3	57	24.4	1	4	270	0.00	30.190 
13:05	38.3	38.3	38.3	56	24.0	2	5	338	0.00	30.190 
13:10	38.3	38.3	38.3	54	23.1	2	5	315	0.00	30.190 
13:15	38.2	38.2	38.2	55	23.5	1	4	270	0.00	30.189 
13:20	38.3	38.3	38.3	56	24.0	2	5	292	0.00	30.189 
13:25	38.8	38.8	38.8	56	24.5	1	5	338	0.00	30.189 
13:30	38.5	38.5	38.5	54	23.3	2	5	338	0.00	30.179 
13:35	38.6	38.6	38.6	54	23.4	2	4	270	0.00	30.179 
13:40	38.8	38.8	38.8	53	23.2	2	5	338	0.00	30.179 
13:45	38.8	38.8	38.8	50	21.8	2	5	315	0.00	30.178 
13:50	38.8	38.8	38.8	49	21.3	3	7	315	0.00	30.178 
13:55	38.6	38.6	38.6	48	20.6	3	6	0	0.00	30.178 
14:00	38.8	38.8	38.8	47	20.3	2	9	338	0.00	30.177 
14:05	38.5	38.5	38.5	47	20.0	3	9	270	0.00	30.177 
14:10	38.2	35.2	38.2	48	20.3	4	12	338	0.00	30.177 
14:15	38.3	38.3	38.3	49	20.8	2	9	292	0.00	30.177 
14:20	38.5	38.5	38.5	48	20.5	2	7	270	0.00	30.177 
14:25	38.6	38.6	38.6	47	20.1	2	7	292	0.00	30.177 
14:30	38.5	38.5	38.5	48	20.5	2	6	292	0.00	30.168 
14:35	38.6	38.6	38.6	47	20.1	3	6	270	0.00	30.168 
14:40	38.2	38.2	38.2	46	19.3	3	6	315	0.00	30.168 
14:45	37.9	37.9	37.9	47	19.5	2	7	270	0.00	30.167 
14:50	37.9	37.9	37.9	47	19.5	3	7	270	0.00	30.167 
14:55	37.8	37.8	37.8	48	19.9	2	9	0	0.00	30.167 
15:00	37.5	37.5	37.5	48	19.6	3	7	338	0.00	30.164 
15:05	37.3	37.3	37.3	49	19.9	2	5	0	0.00	30.164 
15:10	37.2	37.2	37.2	48	19.3	3	6	292	0.00	30.164 
15:15	37.0	37.0	37.0	47	18.7	3	10	315	0.00	30.175 
15:20	36.9	33.7	36.9	47	18.6	4	8	338	0.00	30.175 
15:25	36.6	33.4	36.6	45	17.3	4	8	315	0.00	30.175 
15:30	36.5	36.5	36.5	45	17.2	3	9	315	0.00	30.182 
15:35	36.3	32.1	36.3	44	16.5	5	12	315	0.00	30.182 
15:40	36.0	36.0	36.0	46	17.3	3	9	315	0.00	30.182 
15:45	35.6	32.2	35.6	46	16.9	4	9	270	0.00	30.193 
15:50	35.5	32.1	35.5	47	17.3	4	11	315	0.00	30.193 
15:55	35.2	31.8	35.2	47	17.0	4	10	270	0.00	30.193 
16:00	35.2	35.2	35.2	49	18.0	3	8	248	0.00	30.197 
16:05	34.9	31.4	34.9	47	16.7	4	10	270	0.00	30.197 
16:10	34.6	31.1	34.6	48	16.9	4	9	292	0.00	30.197 
16:15	34.3	34.3	34.3	50	17.6	3	6	292	0.00	30.203 
16:20	34.3	34.3	34.3	51	18.1	2	5	338	0.00	30.203 
16:25	34.1	34.1	34.1	51	17.9	2	6	315	0.00	30.203 
16:30	34.0	34.0	34.0	51	17.8	2	5	338	0.00	30.210 
16:35	33.7	33.7	33.7	52	18.0	2	7	270	0.00	30.210 
16:40	33.5	33.5	33.5	52	17.8	1	4	338	0.00	30.210 
16:45	33.4	33.4	33.4	53	18.1	1	4	270	0.00	30.216 
16:50	33.1	33.1	33.1	53	17.9	2	7	315	0.00	30.216 
16:55	32.7	32.7	32.7	52	17.0	3	6	292	0.00	30.216 
17:00	32.4	32.4	32.4	52	16.8	3	8	315	0.00	30.229 
17:05	31.9	31.9	31.9	53	16.7	3	7	270	0.00	30.229 
17:10	31.5	31.5	31.5	53	16.4	3	7	338	0.00	30.229 
17:15	31.0	31.0	31.0	54	16.3	3	7	292	0.00	30.234 
17:20	30.9	30.9	30.9	55	16.7	3	6	248	0.00	30.234 
17:25	30.6	30.6	30.6	56	16.8	3	7	338	0.00	30.234 
17:30	30.3	30.3	30.3	56	16.5	1	4	292	0.00	30.249 
17:35	30.0	30.0	30.0	56	16.2	2	5	315	0.00	30.249 
17:40	29.7	29.7	29.7	56	15.9	3	11	315	0.00	30.249 
17:45	29.3	29.3	29.3	56	15.6	2	7	315	0.00	30.259 
17:50	29.0	29.0	29.0	57	15.7	3	9	270	0.00	30.259 
17:55	28.8	28.8	28.8	58	15.9	3	9	338	0.00	30.259 
18:00	28.5	28.5	28.5	58	15.6	3	10	270	0.00	30.273 
18:05	28.2	23.7	28.2	58	15.3	4	10	292	0.00	30.273 
18:10	28.1	28.1	28.1	59	15.6	2	6	315	0.00	30.273 
18:15	27.8	27.8	27.8	60	15.7	2	5	338	0.00	30.284 
18:20	27.6	27.6	27.6	60	15.6	1	4	338	0.00	30.284 
18:25	27.5	27.5	27.5	61	15.8	2	6	270	0.00	30.284 
18:30	27.2	27.2	27.2	60	15.2	2	11	292	0.00	30.301 
18:35	27.0	27.0	27.0	59	14.6	3	7	338	0.00	30.301 
18:40	26.7	26.7	26.7	59	14.3	3	10	315	0.00	30.301 
18:45	26.6	26.6	26.6	59	14.2	2	5	338	0.00	30.309 
18:50	26.4	26.4	26.4	59	14.0	2	10	292	0.00	30.309 
18:55	26.1	26.1	26.1	58	13.4	3	6	315	0.00	30.309 
19:00	25.7	25.7	25.7	57	12.6	3	6	315	0.00	30.319 
19:05	25.4	25.4	25.4	57	12.3	3	9	270	0.00	30.319 
19:10	25.3	25.3	25.3	58	12.6	2	7	338	0.00	30.319 
19:15	25.1	25.1	25.1	58	12.4	2	7	315	0.00	30.334 
19:20	24.8	24.8	24.8	58	12.1	1	4	270	0.00	30.334 
19:25	24.7	24.7	24.7	59	12.4	2	5	315	0.00	30.334 
19:30	24.5	24.5	24.5	59	12.3	2	6	315	0.00	30.347 
19:35	24.2	24.2	24.2	59	12.0	2	5	338	0.00	30.347 
19:40	24.1	24.1	24.1	59	11.9	2	5	270	0.00	30.347 
19:45	24.1	24.1	24.1	60	12.3	2	10	0	0.00	30.354 
19:50	23.9	23.9	23.9	60	12.1	2	6	315	0.00	30.354 
19:55	23.8	23.8	23.8	61	12.3	2	5	270	0.00	30.354 
20:00	23.6	23.6	23.6	61	12.2	1	5	0	0.00	30.360 
20:05	23.6	23.6	23.6	61	12.2	2	6	0	0.00	30.360 
20:10	23.5	23.5	23.5	61	12.1	2	5	338	0.00	30.360 
20:15	23.5	23.5	23.5	61	12.1	2	5	270	0.00	30.365 
20:20	23.3	23.3	23.3	61	11.9	1	3	315	0.00	30.365 
20:25	23.2	23.2	23.2	61	11.8	1	3	315	0.00	30.365 
20:30	23.0	23.0	23.0	61	11.6	1	4	292	0.00	30.371 
20:35	22.9	22.9	22.9	61	11.5	0	3	292	0.00	30.371 
20:40	22.7	22.7	22.7	62	11.7	0	3	292	0.00	30.371 
20:45	22.5	22.5	22.5	62	11.5	0	4	338	0.00	30.372 
20:50	22.5	22.5	22.5	62	11.5	0	2	338	0.00	30.372 
20:55	22.4	22.4	22.4	62	11.4	0	1	338	0.00	30.372 
21:00	22.2	22.2	22.2	62	11.2	0	2	338	0.00	30.378 
21:05	22.2	22.2	22.2	62	11.2	0	2	315	0.00	30.378 
21:10	22.1	22.1	22.1	62	11.1	0	2	315	0.00	30.378 
21:15	22.1	22.1	22.1	63	11.5	0	1	315	0.00	30.374 
21:20	21.9	21.9	21.9	63	11.3	0	1	315	0.00	30.374 
21:25	21.8	21.8	21.8	64	11.5	0	1	315	0.00	30.374 
21:30	21.8	21.8	21.8	64	11.5	0	2	315	0.00	30.380 
21:35	21.8	21.8	21.8	64	11.5	0	1	315	0.00	30.380 
21:40	21.6	21.6	21.6	64	11.3	0	1	315	0.00	30.380 
21:45	21.6	21.6	21.6	64	11.3	0	1	315	0.00	30.384 
21:50	21.4	21.4	21.4	65	11.5	0	1	315	0.00	30.384 
21:55	21.3	21.3	21.3	65	11.4	0	0	---	0.00	30.384 
22:00	21.1	21.1	21.1	65	11.2	0	0	---	0.00	30.383 
22:05	21.0	21.0	21.0	65	11.1	0	0	---	0.00	30.383 
22:10	20.6	20.6	20.6	66	11.1	0	0	---	0.00	30.383 
22:15	20.5	20.5	20.5	66	11.0	0	0	---	0.00	30.373 
22:20	20.3	20.3	20.3	67	11.1	0	0	---	0.00	30.373 
22:25	20.0	20.0	20.0	68	11.2	0	0	---	0.00	30.373 
22:30	19.9	19.9	19.9	69	11.4	0	0	---	0.00	30.376 
22:35	19.9	19.9	19.9	69	11.4	0	0	---	0.00	30.376 
22:40	19.9	19.9	19.9	69	11.4	0	0	---	0.00	30.376 
22:45	19.9	19.9	19.9	70	11.7	0	1	315	0.00	30.374 
22:50	19.7	19.7	19.7	70	11.5	0	1	315	0.00	30.374 
22:55	19.7	19.7	19.7	71	11.8	0	1	315	0.00	30.374 
23:00	19.7	19.7	19.7	71	11.8	0	0	---	0.00	30.368 
23:05	19.7	19.7	19.7	71	11.8	0	0	---	0.00	30.368 
23:10	19.7	19.7	19.7	71	11.8	0	0	---	0.00	30.368 
23:15	19.7	19.7	19.7	71	11.8	0	0	---	0.00	30.375 
23:20	19.7	19.7	19.7	72	12.2	0	1	315	0.00	30.375 
23:25	19.7	19.7	19.7	73	12.5	0	1	315	0.00	30.375 
23:30	20.0	20.0	20.0	73	12.8	0	1	315	0.00	30.378 
23:35	20.2	20.2	20.2	73	13.0	0	2	315	0.00	30.378 
23:40	20.5	20.5	20.5	72	12.9	0	2	315	0.00	30.378 
23:45	20.8	20.8	20.8	72	13.2	1	3	292	0.00	30.382 
23:50	21.1	21.1	21.1	72	13.5	0	2	292	0.00	30.382 
23:55	21.3	21.3	21.3	71	13.4	0	2	292	0.00	30.382 

CoCoRaHS
IN-AL-39
A2 Web Hosting
Creative Commons License
GoDaddy
search engine by freefind advanced

loaded 2018-11-19 18:57:54 • last modified 2010-11-18 10:43:29
Privacy PolicyDisclaimer
• wx.awcolley.com is powered by PmWiki v.2002016 •
• all content (unless otherwise noted) © 2018 A W Colley